Time;durP1;ratioP1;P1;durP2;ratioP2;P2;SDS_P1;SDS_P2;PMS_P1;PMS_P2;Temp;Humidity;BMP_temperature;BMP_pressure;BME280_temperature;BME280_humidity;BME280_pressure;Samples;Min_cycle;Max_cycle;Signal;HPM_P1;HPM_P2
2022/04/24 00:00:25;;;;;;;6.47;4.95;;;;;;;;;;4992607;28;20217;-65
2022/04/24 00:02:51;;;;;;;6.20;5.10;;;;;;;;;;4992239;28;20236;-65
2022/04/24 00:05:17;;;;;;;7.78;5.35;;;;;;;;;;4992863;28;20288;-65
2022/04/24 00:07:43;;;;;;;8.50;5.00;;;;;;;;;;4992896;28;20657;-65
2022/04/24 00:10:10;;;;;;;6.25;5.18;;;;;;;;;;4992019;28;20288;-64
2022/04/24 00:12:35;;;;;;;7.90;5.50;;;;;;;;;;4992829;28;20216;-65
2022/04/24 00:15:01;;;;;;;8.68;5.65;;;;;;;;;;4992483;28;20224;-65
2022/04/24 00:17:26;;;;;;;7.13;5.05;;;;;;;;;;4992372;28;20213;-64
2022/04/24 00:19:51;;;;;;;6.70;5.53;;;;;;;;;;4992963;28;20213;-65
2022/04/24 00:22:16;;;;;;;7.20;5.93;;;;;;;;;;4992505;28;20248;-65
2022/04/24 00:24:42;;;;;;;6.68;5.47;;;;;;;;;;4992161;28;20553;-66
2022/04/24 00:27:08;;;;;;;6.70;5.80;;;;;;;;;;4991194;28;20217;-65
2022/04/24 00:29:33;;;;;;;9.38;6.15;;;;;;;;;;4992805;28;20299;-65
2022/04/24 00:31:58;;;;;;;7.25;6.05;;;;;;;;;;4992010;28;20305;-65
2022/04/24 00:34:24;;;;;;;7.32;6.00;;;;;;;;;;4993228;28;20217;-64
2022/04/24 00:36:49;;;;;;;8.23;6.13;;;;;;;;;;4996643;28;20236;-64
2022/04/24 00:39:14;;;;;;;7.35;6.10;;;;;;;;;;4995503;28;20271;-65
2022/04/24 00:41:43;;;;;;;9.07;6.20;;;;;;;;;;4996891;28;20582;-64
2022/04/24 00:44:09;;;;;;;8.25;6.10;;;;;;;;;;4996263;28;20213;-64
2022/04/24 00:46:42;;;;;;;7.63;6.70;;;;;;;;;;4995651;28;20213;-64
2022/04/24 00:49:08;;;;;;;8.98;6.93;;;;;;;;;;4994780;28;20220;-64
2022/04/24 00:51:33;;;;;;;7.75;6.55;;;;;;;;;;4996589;28;20213;-65
2022/04/24 00:53:58;;;;;;;7.53;6.35;;;;;;;;;;4995784;28;20583;-64
2022/04/24 00:56:30;;;;;;;9.13;6.55;;;;;;;;;;4996112;28;20684;-64
2022/04/24 00:58:55;;;;;;;8.40;6.95;;;;;;;;;;4994288;28;20263;-65
2022/04/24 01:01:20;;;;;;;11.07;6.93;;;;;;;;;;4995764;28;20217;-65
2022/04/24 01:03:46;;;;;;;9.43;6.88;;;;;;;;;;4996196;28;20587;-65
2022/04/24 01:06:11;;;;;;;9.27;6.97;;;;;;;;;;4993981;28;20232;-64
2022/04/24 01:08:36;;;;;;;8.65;7.07;;;;;;;;;;4995939;28;20735;-65
2022/04/24 01:11:01;;;;;;;9.77;6.90;;;;;;;;;;4995705;28;20217;-64
2022/04/24 01:13:27;;;;;;;9.90;7.35;;;;;;;;;;4977552;28;21002;-64
2022/04/24 01:15:55;;;;;;;9.45;7.45;;;;;;;;;;4972283;28;20697;-63
2022/04/24 01:18:21;;;;;;;9.13;7.63;;;;;;;;;;4970412;28;20222;-64
2022/04/24 01:20:47;;;;;;;8.90;7.25;;;;;;;;;;4981022;28;20213;-64
2022/04/24 01:23:13;;;;;;;9.00;7.13;;;;;;;;;;4985045;28;20213;-64
2022/04/24 01:25:39;;;;;;;9.50;7.30;;;;;;;;;;4971054;28;20630;-64
2022/04/24 01:28:06;;;;;;;10.10;6.97;;;;;;;;;;4984739;28;20209;-64
2022/04/24 01:30:32;;;;;;;10.10;7.15;;;;;;;;;;4969967;28;20762;-64
2022/04/24 01:32:57;;;;;;;10.15;7.53;;;;;;;;;;4958682;28;20221;-64
2022/04/24 01:35:23;;;;;;;9.02;7.47;;;;;;;;;;4957479;28;20221;-64
2022/04/24 01:37:48;;;;;;;9.20;7.53;;;;;;;;;;4980833;28;20217;-64
2022/04/24 01:40:13;;;;;;;9.88;7.40;;;;;;;;;;4984870;28;20221;-63
2022/04/24 01:42:38;;;;;;;8.40;6.97;;;;;;;;;;4984515;28;20248;-64
2022/04/24 01:45:05;;;;;;;10.32;8.05;;;;;;;;;;4984881;28;20220;-64
2022/04/24 01:47:30;;;;;;;13.52;7.57;;;;;;;;;;4974791;28;20218;-64
2022/04/24 01:49:55;;;;;;;9.68;7.78;;;;;;;;;;4965487;28;20236;-64
2022/04/24 01:52:20;;;;;;;10.15;7.85;;;;;;;;;;4966546;28;20860;-64
2022/04/24 01:54:46;;;;;;;11.13;7.40;;;;;;;;;;4958136;28;20233;-64
2022/04/24 01:57:11;;;;;;;9.75;7.10;;;;;;;;;;4956914;28;20916;-64
2022/04/24 01:59:36;;;;;;;10.88;8.65;;;;;;;;;;4978022;28;20209;-64
2022/04/24 02:02:02;;;;;;;13.13;7.97;;;;;;;;;;4979403;28;20209;-64
2022/04/24 02:04:27;;;;;;;10.38;7.80;;;;;;;;;;4985336;28;20691;-64
2022/04/24 02:06:52;;;;;;;9.68;8.00;;;;;;;;;;4984923;28;20637;-64
2022/04/24 02:09:18;;;;;;;14.00;8.77;;;;;;;;;;4983747;28;20285;-63
2022/04/24 02:11:43;;;;;;;12.82;8.27;;;;;;;;;;4985194;28;20702;-64
2022/04/24 02:14:08;;;;;;;11.52;7.63;;;;;;;;;;4999093;28;20229;-63
2022/04/24 02:16:34;;;;;;;11.40;7.88;;;;;;;;;;4976959;28;20239;-63
2022/04/24 02:18:59;;;;;;;11.82;8.00;;;;;;;;;;4981929;28;20217;-64
2022/04/24 02:21:25;;;;;;;12.27;8.50;;;;;;;;;;4964965;28;20568;-63
2022/04/24 02:23:51;;;;;;;11.32;8.50;;;;;;;;;;4982477;28;20215;-63
2022/04/24 02:26:16;;;;;;;10.27;8.32;;;;;;;;;;4984407;28;20218;-63
2022/04/24 02:28:42;;;;;;;10.43;7.88;;;;;;;;;;4984621;28;20209;-63
2022/04/24 02:31:07;;;;;;;13.10;8.27;;;;;;;;;;4968449;28;20304;-64
2022/04/24 02:33:32;;;;;;;11.23;8.57;;;;;;;;;;4984911;28;20287;-63
2022/04/24 02:35:57;;;;;;;10.02;8.48;;;;;;;;;;4984265;28;20241;-63
2022/04/24 02:38:23;;;;;;;12.25;7.57;;;;;;;;;;4979042;28;20220;-64
2022/04/24 02:40:48;;;;;;;14.40;8.00;;;;;;;;;;4962245;28;20294;-64
2022/04/24 02:43:13;;;;;;;10.30;7.30;;;;;;;;;;4957251;28;20308;-63
2022/04/24 02:45:40;;;;;;;9.80;7.75;;;;;;;;;;4961099;28;20216;-63
2022/04/24 02:48:06;;;;;;;11.00;8.20;;;;;;;;;;4983486;28;20209;-64
2022/04/24 02:50:31;;;;;;;13.02;7.85;;;;;;;;;;4974123;28;20217;-63
2022/04/24 02:52:56;;;;;;;10.40;7.97;;;;;;;;;;4964737;28;20239;-63
2022/04/24 02:55:22;;;;;;;11.77;7.80;;;;;;;;;;4981613;28;20703;-63
2022/04/24 02:57:47;;;;;;;9.30;7.18;;;;;;;;;;4974915;28;20225;-63
2022/04/24 03:00:13;;;;;;;10.82;8.00;;;;;;;;;;4976187;28;20209;-63
2022/04/24 03:02:40;;;;;;;12.63;7.93;;;;;;;;;;4958968;28;20213;-63
2022/04/24 03:05:06;;;;;;;11.70;7.40;;;;;;;;;;4975240;28;20240;-63
2022/04/24 03:07:31;;;;;;;10.82;7.60;;;;;;;;;;4976960;28;20363;-64
2022/04/24 03:09:56;;;;;;;9.35;7.07;;;;;;;;;;4983731;28;20213;-63
2022/04/24 03:12:21;;;;;;;10.95;7.47;;;;;;;;;;4982421;28;20706;-64
2022/04/24 03:14:47;;;;;;;11.77;7.05;;;;;;;;;;4967228;28;20601;-64
2022/04/24 03:17:12;;;;;;;10.40;7.55;;;;;;;;;;4963940;28;20256;-63
2022/04/24 03:19:37;;;;;;;9.52;7.15;;;;;;;;;;4963974;28;20217;-63
2022/04/24 03:22:03;;;;;;;9.45;7.18;;;;;;;;;;4969715;28;20255;-63
2022/04/24 03:24:28;;;;;;;8.75;6.95;;;;;;;;;;4957776;28;20226;-63
2022/04/24 03:26:53;;;;;;;10.93;7.70;;;;;;;;;;4955826;28;20210;-63
2022/04/24 03:29:19;;;;;;;9.57;7.10;;;;;;;;;;4956564;28;20218;-63
2022/04/24 03:31:44;;;;;;;9.75;7.20;;;;;;;;;;4962484;28;20255;-63
2022/04/24 03:34:09;;;;;;;8.95;7.03;;;;;;;;;;4969527;28;20244;-63
2022/04/24 03:36:34;;;;;;;9.98;6.75;;;;;;;;;;4983271;28;20217;-63
2022/04/24 03:39:00;;;;;;;10.07;6.68;;;;;;;;;;4983097;28;20213;-63
2022/04/24 03:41:25;;;;;;;8.98;6.97;;;;;;;;;;4982393;28;20590;-63
2022/04/24 03:43:50;;;;;;;14.82;7.72;;;;;;;;;;4983145;28;20205;-63
2022/04/24 03:46:16;;;;;;;8.65;6.55;;;;;;;;;;4979462;28;20747;-63
2022/04/24 03:48:41;;;;;;;11.10;6.55;;;;;;;;;;4974608;28;20213;-63
2022/04/24 03:51:08;;;;;;;8.00;6.10;;;;;;;;;;4974519;28;20221;-63
2022/04/24 03:53:33;;;;;;;9.48;6.75;;;;;;;;;;4979060;28;20953;-63
2022/04/24 03:55:58;;;;;;;11.85;7.13;;;;;;;;;;4982237;28;20295;-63
2022/04/24 03:58:23;;;;;;;9.05;6.30;;;;;;;;;;4969868;28;20613;-63
2022/04/24 04:00:49;;;;;;;9.20;6.60;;;;;;;;;;4963825;28;20205;-63
2022/04/24 04:03:14;;;;;;;8.25;6.15;;;;;;;;;;4963159;28;20222;-63
2022/04/24 04:05:39;;;;;;;8.48;6.00;;;;;;;;;;4963553;28;20976;-63
2022/04/24 04:08:05;;;;;;;8.80;6.72;;;;;;;;;;4962911;28;20222;-63
2022/04/24 04:10:30;;;;;;;10.23;6.38;;;;;;;;;;4958117;28;20209;-63
2022/04/24 04:12:55;;;;;;;9.30;6.63;;;;;;;;;;4978873;28;20213;-63
2022/04/24 04:15:21;;;;;;;10.35;6.50;;;;;;;;;;4979437;28;20221;-63
2022/04/24 04:17:46;;;;;;;7.82;5.85;;;;;;;;;;4985598;28;20295;-64
2022/04/24 04:20:12;;;;;;;9.07;6.55;;;;;;;;;;4967389;28;20218;-64
2022/04/24 04:22:44;;;;;;;8.98;6.30;;;;;;;;;;4983927;28;20209;-64
2022/04/24 04:25:09;;;;;;;7.82;6.20;;;;;;;;;;4986526;28;20682;-63
2022/04/24 04:27:35;;;;;;;9.63;5.72;;;;;;;;;;4985789;28;20211;-63
2022/04/24 04:30:00;;;;;;;9.77;6.20;;;;;;;;;;4972672;28;20217;-63
2022/04/24 04:32:25;;;;;;;7.68;5.63;;;;;;;;;;4979940;28;20209;-63
2022/04/24 04:34:50;;;;;;;8.82;5.80;;;;;;;;;;4978567;28;20225;-63
2022/04/24 04:37:16;;;;;;;9.35;6.20;;;;;;;;;;4963131;28;20224;-63
2022/04/24 04:39:41;;;;;;;7.40;5.88;;;;;;;;;;4964943;28;20213;-63
2022/04/24 04:42:06;;;;;;;13.55;6.13;;;;;;;;;;4967034;28;20228;-63
2022/04/24 04:44:31;;;;;;;8.00;5.80;;;;;;;;;;4966839;28;20228;-63
2022/04/24 04:46:57;;;;;;;8.38;6.03;;;;;;;;;;4978253;28;20374;-63
2022/04/24 04:49:22;;;;;;;9.13;6.10;;;;;;;;;;4985778;28;20205;-63
2022/04/24 04:51:47;;;;;;;6.82;5.25;;;;;;;;;;4985516;28;20225;-63
2022/04/24 04:54:12;;;;;;;8.38;5.90;;;;;;;;;;4970060;28;20228;-63
2022/04/24 04:56:38;;;;;;;7.65;5.10;;;;;;;;;;4959731;28;20564;-64
2022/04/24 04:59:03;;;;;;;9.63;5.53;;;;;;;;;;4958460;28;20221;-63
2022/04/24 05:01:28;;;;;;;8.63;5.68;;;;;;;;;;4962124;28;20210;-63
2022/04/24 05:03:53;;;;;;;7.38;5.20;;;;;;;;;;4967066;28;20214;-63
2022/04/24 05:06:19;;;;;;;9.95;5.57;;;;;;;;;;4965453;28;20221;-63
2022/04/24 05:08:44;;;;;;;8.52;5.25;;;;;;;;;;4966967;28;20225;-63
2022/04/24 05:11:09;;;;;;;7.60;5.07;;;;;;;;;;4985398;28;20336;-63
2022/04/24 05:13:35;;;;;;;7.75;5.25;;;;;;;;;;4978777;28;20206;-63
2022/04/24 05:16:00;;;;;;;9.15;5.07;;;;;;;;;;4966740;28;20213;-64
2022/04/24 05:18:26;;;;;;;7.70;5.20;;;;;;;;;;4967458;28;20776;-64
2022/04/24 05:20:52;;;;;;;7.15;4.95;;;;;;;;;;4970467;28;20218;-63
2022/04/24 05:23:17;;;;;;;8.05;5.38;;;;;;;;;;4959090;28;20241;-63
2022/04/24 05:25:42;;;;;;;7.78;4.88;;;;;;;;;;4965715;28;20360;-63
2022/04/24 05:28:08;;;;;;;7.32;4.80;;;;;;;;;;4965512;28;20217;-63
2022/04/24 05:30:33;;;;;;;6.28;5.10;;;;;;;;;;4966922;28;20217;-63
2022/04/24 05:32:58;;;;;;;7.57;5.20;;;;;;;;;;4965810;28;20337;-63
2022/04/24 05:35:24;;;;;;;6.60;4.70;;;;;;;;;;4966001;28;20221;-63
2022/04/24 05:37:49;;;;;;;7.40;4.75;;;;;;;;;;4966761;28;20285;-65
2022/04/24 05:40:14;;;;;;;7.20;4.63;;;;;;;;;;4974587;28;20340;-63
2022/04/24 05:42:44;;;;;;;8.53;5.37;;;;;;;;;;4976515;28;20435;-65
2022/04/24 05:45:14;;;;;;;7.95;5.03;;;;;;;;;;4976769;28;20515;-66
2022/04/24 05:47:39;;;;;;;7.20;5.00;;;;;;;;;;4967917;28;20214;-65
2022/04/24 05:50:05;;;;;;;8.43;4.40;;;;;;;;;;4967592;28;20283;-66
2022/04/24 05:52:30;;;;;;;7.90;4.85;;;;;;;;;;4980913;28;20206;-64
2022/04/24 05:54:56;;;;;;;7.00;4.53;;;;;;;;;;4966207;28;20305;-65
2022/04/24 05:57:22;;;;;;;8.02;4.55;;;;;;;;;;4980444;28;20232;-65
2022/04/24 05:59:47;;;;;;;5.95;4.43;;;;;;;;;;4966465;28;20209;-66
2022/04/24 06:02:12;;;;;;;5.97;4.80;;;;;;;;;;4962882;28;20566;-66
2022/04/24 06:04:38;;;;;;;6.72;4.72;;;;;;;;;;4961390;28;20214;-65
2022/04/24 06:07:03;;;;;;;9.95;4.68;;;;;;;;;;4957690;28;20328;-65
2022/04/24 06:09:29;;;;;;;6.57;4.78;;;;;;;;;;4959900;28;20216;-66
2022/04/24 06:11:58;;;;;;;8.15;4.47;;;;;;;;;;4966656;28;20704;-64
2022/04/24 06:14:24;;;;;;;6.95;4.22;;;;;;;;;;4966797;28;20224;-65
2022/04/24 06:16:49;;;;;;;7.60;4.50;;;;;;;;;;4965920;28;20206;-65
2022/04/24 06:19:14;;;;;;;8.02;4.47;;;;;;;;;;4965935;28;20260;-65
2022/04/24 06:21:40;;;;;;;6.93;4.55;;;;;;;;;;4967276;28;20676;-65
2022/04/24 06:24:05;;;;;;;6.38;4.68;;;;;;;;;;4964864;28;20293;-66
2022/04/24 06:26:31;;;;;;;8.30;4.82;;;;;;;;;;4959986;28;20609;-66
2022/04/24 06:28:56;;;;;;;6.35;4.30;;;;;;;;;;4958498;28;20268;-65
2022/04/24 06:31:21;;;;;;;8.52;4.75;;;;;;;;;;4957439;28;20221;-65
2022/04/24 06:33:47;;;;;;;6.63;4.70;;;;;;;;;;4967601;28;20253;-63
2022/04/24 06:36:12;;;;;;;7.07;4.85;;;;;;;;;;4978781;28;20573;-64
2022/04/24 06:38:38;;;;;;;9.18;4.47;;;;;;;;;;4992465;28;20244;-63
2022/04/24 06:41:03;;;;;;;6.15;4.90;;;;;;;;;;4993849;28;20197;-65
2022/04/24 06:43:28;;;;;;;8.90;5.18;;;;;;;;;;4993857;28;20561;-66
2022/04/24 06:45:53;;;;;;;6.90;4.57;;;;;;;;;;4994183;28;20221;-66
2022/04/24 06:48:19;;;;;;;7.45;4.88;;;;;;;;;;4993745;28;20218;-67
2022/04/24 06:50:45;;;;;;;7.13;4.85;;;;;;;;;;4993266;28;20264;-66
2022/04/24 06:53:11;;;;;;;8.15;5.00;;;;;;;;;;4993708;28;20756;-66
2022/04/24 06:55:37;;;;;;;8.88;5.10;;;;;;;;;;4992232;28;20260;-65
2022/04/24 06:58:03;;;;;;;7.32;4.60;;;;;;;;;;4992940;28;20233;-65
2022/04/24 07:00:29;;;;;;;7.65;4.72;;;;;;;;;;4993984;28;20668;-67
2022/04/24 07:02:54;;;;;;;8.98;4.50;;;;;;;;;;4973429;28;20678;-67
2022/04/24 07:05:20;;;;;;;8.00;4.43;;;;;;;;;;4973330;28;20221;-66
2022/04/24 07:07:45;;;;;;;7.30;4.95;;;;;;;;;;4974600;28;20265;-65
2022/04/24 07:10:10;;;;;;;7.32;4.60;;;;;;;;;;4974022;28;20276;-64
2022/04/24 07:12:45;;;;;;;8.85;4.68;;;;;;;;;;4973969;28;20206;-64
2022/04/24 07:15:11;;;;;;;7.68;5.18;;;;;;;;;;4973865;28;20233;-65
2022/04/24 07:17:36;;;;;;;6.65;4.80;;;;;;;;;;4974481;28;20213;-63
2022/04/24 07:20:01;;;;;;;8.20;4.80;;;;;;;;;;4991142;28;20303;-66
2022/04/24 07:22:26;;;;;;;7.00;4.77;;;;;;;;;;4993499;28;20409;-63
2022/04/24 07:24:52;;;;;;;6.10;4.35;;;;;;;;;;4993413;28;20649;-63
2022/04/24 07:27:17;;;;;;;5.75;4.57;;;;;;;;;;4991907;28;20224;-63
2022/04/24 07:29:42;;;;;;;7.60;4.95;;;;;;;;;;4993322;28;20664;-63
2022/04/24 07:32:08;;;;;;;6.35;4.57;;;;;;;;;;4993012;28;20221;-67
2022/04/24 07:34:33;;;;;;;8.05;5.00;;;;;;;;;;4992871;28;20276;-67
2022/04/24 07:36:59;;;;;;;6.65;4.57;;;;;;;;;;4992686;28;20271;-68
2022/04/24 07:39:24;;;;;;;7.72;5.00;;;;;;;;;;4992232;28;20217;-68
2022/04/24 07:41:49;;;;;;;5.97;4.67;;;;;;;;;;4990766;28;20424;-68
2022/04/24 07:44:15;;;;;;;8.80;4.55;;;;;;;;;;4991764;28;20276;-69
2022/04/24 07:46:40;;;;;;;8.38;5.07;;;;;;;;;;4991525;28;20573;-69
2022/04/24 07:49:05;;;;;;;9.13;5.07;;;;;;;;;;4992167;28;20298;-68
2022/04/24 07:51:31;;;;;;;9.10;4.57;;;;;;;;;;4992696;28;20217;-69
2022/04/24 07:53:56;;;;;;;7.22;5.00;;;;;;;;;;4992731;28;20232;-69
2022/04/24 07:56:21;;;;;;;7.70;4.70;;;;;;;;;;4992317;28;20259;-69
2022/04/24 07:58:47;;;;;;;7.70;4.72;;;;;;;;;;4993175;28;20558;-69
2022/04/24 08:01:16;;;;;;;6.82;4.80;;;;;;;;;;4991869;28;20224;-68
2022/04/24 08:03:42;;;;;;;7.22;5.43;;;;;;;;;;4993240;28;20209;-69
2022/04/24 08:06:07;;;;;;;9.05;5.18;;;;;;;;;;4992586;28;20267;-69
2022/04/24 08:08:33;;;;;;;7.18;4.90;;;;;;;;;;4992493;28;20209;-69
2022/04/24 08:10:58;;;;;;;7.78;5.15;;;;;;;;;;4993209;28;20213;-69
2022/04/24 08:13:24;;;;;;;7.55;4.93;;;;;;;;;;4992605;28;20398;-68
2022/04/24 08:15:50;;;;;;;9.95;5.15;;;;;;;;;;4992381;28;20232;-69
2022/04/24 08:18:15;;;;;;;6.63;4.75;;;;;;;;;;4991341;28;20288;-67
2022/04/24 08:20:41;;;;;;;6.00;4.35;;;;;;;;;;4991823;28;20300;-68
2022/04/24 08:23:06;;;;;;;8.18;4.88;;;;;;;;;;4991634;28;20205;-67
2022/04/24 08:25:38;;;;;;;11.38;4.82;;;;;;;;;;4992651;28;20209;-69
2022/04/24 08:28:06;;;;;;;8.90;4.97;;;;;;;;;;4992646;28;20217;-68
2022/04/24 08:30:32;;;;;;;7.50;5.20;;;;;;;;;;4992453;28;20213;-68
2022/04/24 08:32:57;;;;;;;6.70;5.18;;;;;;;;;;4992808;28;20197;-68
2022/04/24 08:35:22;;;;;;;7.35;5.30;;;;;;;;;;4992733;28;20304;-69
2022/04/24 08:37:48;;;;;;;9.73;5.30;;;;;;;;;;4992099;28;20209;-68
2022/04/24 08:40:13;;;;;;;8.52;5.15;;;;;;;;;;4991185;28;20209;-68
2022/04/24 08:42:40;;;;;;;8.13;5.43;;;;;;;;;;4992681;28;20659;-68
2022/04/24 08:45:05;;;;;;;7.70;5.15;;;;;;;;;;4991700;28;20214;-68
2022/04/24 08:47:30;;;;;;;6.57;5.47;;;;;;;;;;4992681;28;20296;-69
2022/04/24 08:49:56;;;;;;;7.43;5.45;;;;;;;;;;4992294;28;20296;-68
2022/04/24 08:52:22;;;;;;;8.45;5.43;;;;;;;;;;4992401;28;20240;-68
2022/04/24 08:54:48;;;;;;;7.13;5.72;;;;;;;;;;4992702;28;20320;-68
2022/04/24 08:57:14;;;;;;;7.60;5.32;;;;;;;;;;4994823;28;20232;-69
2022/04/24 08:59:39;;;;;;;9.63;5.70;;;;;;;;;;4996250;28;20209;-68
2022/04/24 09:02:05;;;;;;;9.95;6.00;;;;;;;;;;4996100;28;20680;-67
2022/04/24 09:04:36;;;;;;;10.68;5.15;;;;;;;;;;4995692;28;20244;-69
2022/04/24 09:07:03;;;;;;;9.43;5.82;;;;;;;;;;4995971;28;20221;-68
2022/04/24 09:09:29;;;;;;;7.13;5.60;;;;;;;;;;4996169;28;20221;-67
2022/04/24 09:12:08;;;;;;;6.95;5.22;;;;;;;;;;4995225;28;20213;-68
2022/04/24 09:14:34;;;;;;;7.55;5.90;;;;;;;;;;4995827;28;20241;-68
2022/04/24 09:17:04;;;;;;;8.93;6.20;;;;;;;;;;4996119;28;20233;-68
2022/04/24 09:19:29;;;;;;;7.75;5.53;;;;;;;;;;4994738;28;20217;-68
2022/04/24 09:22:00;;;;;;;7.32;5.57;;;;;;;;;;4996393;28;20251;-68
2022/04/24 09:24:27;;;;;;;8.93;6.80;;;;;;;;;;4995645;28;20270;-68
2022/04/24 09:26:53;;;;;;;8.00;6.43;;;;;;;;;;4994853;28;20281;-67
2022/04/24 09:29:21;;;;;;;11.18;6.25;;;;;;;;;;4995287;28;20233;-68
2022/04/24 09:31:47;;;;;;;7.88;5.68;;;;;;;;;;4986701;28;20210;-67
2022/04/24 09:34:13;;;;;;;8.93;6.65;;;;;;;;;;4967239;28;20661;-68
2022/04/24 09:36:38;;;;;;;8.07;6.55;;;;;;;;;;4981209;28;20439;-67
2022/04/24 09:39:03;;;;;;;6.15;5.25;;;;;;;;;;4980726;28;20693;-68
2022/04/24 09:41:28;;;;;;;6.70;5.10;;;;;;;;;;4984305;28;20222;-68
2022/04/24 09:43:54;;;;;;;10.63;5.88;;;;;;;;;;4970296;28;20569;-68
2022/04/24 09:46:27;;;;;;;7.78;6.10;;;;;;;;;;4969262;28;20217;-68
2022/04/24 09:48:52;;;;;;;10.55;5.82;;;;;;;;;;4986391;28;20249;-68
2022/04/24 09:51:17;;;;;;;10.55;6.00;;;;;;;;;;4971180;28;20245;-67
2022/04/24 09:53:43;;;;;;;7.53;5.82;;;;;;;;;;4984233;28;20222;-68
2022/04/24 09:56:08;;;;;;;9.40;5.70;;;;;;;;;;4999136;28;20233;-68
2022/04/24 09:58:35;;;;;;;10.18;5.90;;;;;;;;;;4966278;28;20216;-68
2022/04/24 10:01:00;;;;;;;7.90;5.88;;;;;;;;;;4976435;28;20210;-68
2022/04/24 10:03:25;;;;;;;8.43;5.30;;;;;;;;;;4967007;28;20217;-67
2022/04/24 10:05:51;;;;;;;8.50;5.97;;;;;;;;;;4988209;28;20382;-68
2022/04/24 10:08:17;;;;;;;8.45;5.93;;;;;;;;;;4970931;28;20221;-68
2022/04/24 10:10:42;;;;;;;8.70;6.40;;;;;;;;;;4973603;28;20253;-67
2022/04/24 10:13:09;;;;;;;8.93;5.88;;;;;;;;;;4973515;28;20217;-67
2022/04/24 10:15:35;;;;;;;7.75;5.80;;;;;;;;;;4987439;28;20295;-67
2022/04/24 10:18:04;;;;;;;7.75;5.65;;;;;;;;;;4985428;28;20700;-67
2022/04/24 10:20:35;;;;;;;8.90;6.10;;;;;;;;;;4977126;28;20210;-67
2022/04/24 10:23:01;;;;;;;9.00;5.22;;;;;;;;;;4968181;28;20210;-67
2022/04/24 10:25:28;;;;;;;10.10;5.88;;;;;;;;;;4964179;28;20221;-67
2022/04/24 10:27:53;;;;;;;8.05;5.43;;;;;;;;;;4988136;28;20209;-68
2022/04/24 10:30:22;;;;;;;8.25;5.35;;;;;;;;;;4972467;28;20225;-68
2022/04/24 10:32:48;;;;;;;7.82;4.78;;;;;;;;;;4970864;28;20213;-68
2022/04/24 10:35:15;;;;;;;8.68;4.95;;;;;;;;;;4970397;28;20238;-67
2022/04/24 10:37:40;;;;;;;9.00;5.30;;;;;;;;;;4984493;28;20563;-68
2022/04/24 10:40:10;;;;;;;8.18;6.07;;;;;;;;;;4968621;28;20217;-67
2022/04/24 10:42:36;;;;;;;8.43;4.80;;;;;;;;;;4962659;28;20267;-69
2022/04/24 10:45:08;;;;;;;8.82;5.40;;;;;;;;;;4979250;28;20205;-68
2022/04/24 10:47:42;;;;;;;9.35;5.50;;;;;;;;;;4975180;28;20324;-67
2022/04/24 10:50:08;;;;;;;7.32;5.47;;;;;;;;;;4996324;28;20210;-68
2022/04/24 10:52:39;;;;;;;6.93;4.97;;;;;;;;;;4978936;28;20224;-69
2022/04/24 10:55:06;;;;;;;7.32;5.18;;;;;;;;;;4968969;28;20257;-69
2022/04/24 10:57:31;;;;;;;8.98;5.28;;;;;;;;;;4971074;28;20246;-69
2022/04/24 10:59:57;;;;;;;8.50;5.15;;;;;;;;;;5002510;28;20212;-67
2022/04/24 11:02:23;;;;;;;6.90;4.45;;;;;;;;;;4987724;28;20289;-68
2022/04/24 11:04:59;;;;;;;7.70;4.50;;;;;;;;;;4961968;28;21075;-67
2022/04/24 11:07:25;;;;;;;11.40;5.10;;;;;;;;;;4979272;28;20296;-68
2022/04/24 11:09:59;;;;;;;6.07;4.90;;;;;;;;;;4975126;28;20325;-68
2022/04/24 11:12:28;;;;;;;7.15;5.32;;;;;;;;;;4975363;28;20289;-68
2022/04/24 11:14:53;;;;;;;9.48;5.00;;;;;;;;;;4986888;28;20913;-69
2022/04/24 11:17:18;;;;;;;10.98;5.38;;;;;;;;;;5002078;28;20217;-68
2022/04/24 11:19:43;;;;;;;8.85;5.25;;;;;;;;;;4985938;28;20213;-69
2022/04/24 11:22:10;;;;;;;5.93;4.93;;;;;;;;;;4986680;28;20567;-68
2022/04/24 11:24:36;;;;;;;8.30;5.22;;;;;;;;;;4986662;28;20217;-68
2022/04/24 11:27:03;;;;;;;6.93;5.13;;;;;;;;;;4981165;28;20212;-66
2022/04/24 11:29:28;;;;;;;7.15;4.78;;;;;;;;;;4974587;28;20250;-68
2022/04/24 11:31:54;;;;;;;8.23;4.80;;;;;;;;;;4974817;28;20209;-68
2022/04/24 11:34:20;;;;;;;6.30;4.65;;;;;;;;;;4971067;28;20624;-68
2022/04/24 11:36:45;;;;;;;8.02;4.40;;;;;;;;;;4969867;28;20414;-67
2022/04/24 11:39:11;;;;;;;9.20;5.07;;;;;;;;;;4987002;28;20219;-67
2022/04/24 11:41:36;;;;;;;9.65;4.78;;;;;;;;;;4992898;28;20205;-66
2022/04/24 11:44:02;;;;;;;10.45;4.93;;;;;;;;;;4992953;28;20252;-67
2022/04/24 11:51:54;;;;;;;7.63;4.70;;;;;;;;;;4993177;28;20216;-67
2022/04/24 11:54:20;;;;;;;8.52;4.90;;;;;;;;;;4992053;28;20225;-67
2022/04/24 11:56:49;;;;;;;7.20;4.63;;;;;;;;;;4991463;28;20691;-66
2022/04/24 11:59:16;;;;;;;9.45;4.45;;;;;;;;;;4992722;28;20221;-69
2022/04/24 12:01:43;;;;;;;7.07;4.25;;;;;;;;;;4991888;28;20402;-67
2022/04/24 12:04:08;;;;;;;8.52;4.32;;;;;;;;;;4992868;28;20223;-69
2022/04/24 12:06:34;;;;;;;9.43;4.60;;;;;;;;;;4991585;28;20284;-67
2022/04/24 12:09:05;;;;;;;6.85;4.40;;;;;;;;;;4990849;28;20675;-68
2022/04/24 12:11:31;;;;;;;8.38;4.55;;;;;;;;;;4992719;28;20320;-66
2022/04/24 12:14:00;;;;;;;9.23;4.55;;;;;;;;;;4991009;28;20761;-65
2022/04/24 12:16:25;;;;;;;6.57;4.25;;;;;;;;;;4992611;28;20240;-67
2022/04/24 12:18:53;;;;;;;8.05;4.05;;;;;;;;;;4993142;28;20632;-67
2022/04/24 12:21:19;;;;;;;8.43;4.75;;;;;;;;;;4992052;28;20241;-66
2022/04/24 12:23:49;;;;;;;6.07;4.53;;;;;;;;;;4992832;28;20240;-66
2022/04/24 12:26:14;;;;;;;6.28;4.47;;;;;;;;;;4992501;28;20224;-66
2022/04/24 12:28:40;;;;;;;6.25;4.80;;;;;;;;;;4992036;28;20217;-66
2022/04/24 12:31:06;;;;;;;6.43;4.50;;;;;;;;;;4994364;28;20211;-68
2022/04/24 12:33:32;;;;;;;6.43;4.30;;;;;;;;;;4995534;28;20197;-67
2022/04/24 12:36:08;;;;;;;9.00;4.30;;;;;;;;;;4987377;28;20277;-67
2022/04/24 12:38:33;;;;;;;6.38;4.07;;;;;;;;;;4994719;28;20212;-69
2022/04/24 12:40:59;;;;;;;7.50;4.88;;;;;;;;;;4996424;28;20217;-67
2022/04/24 12:43:25;;;;;;;7.18;3.95;;;;;;;;;;4995034;28;20248;-69
2022/04/24 12:45:51;;;;;;;6.13;3.80;;;;;;;;;;4995746;28;20217;-67
2022/04/24 12:48:16;;;;;;;6.22;3.78;;;;;;;;;;4992942;28;20208;-66
2022/04/24 12:50:41;;;;;;;5.78;3.90;;;;;;;;;;4993965;28;20548;-67
2022/04/24 12:53:08;;;;;;;6.22;4.05;;;;;;;;;;4995668;28;20208;-66
2022/04/24 12:55:33;;;;;;;6.53;3.60;;;;;;;;;;4996220;28;20257;-65
2022/04/24 12:57:58;;;;;;;6.80;3.83;;;;;;;;;;4995543;28;20225;-66
2022/04/24 13:00:23;;;;;;;4.97;3.80;;;;;;;;;;4994202;28;20209;-66
2022/04/24 13:02:50;;;;;;;4.53;2.97;;;;;;;;;;4995964;28;20291;-66
2022/04/24 13:05:16;;;;;;;6.38;3.80;;;;;;;;;;4994745;28;20219;-66
2022/04/24 13:07:41;;;;;;;4.85;3.40;;;;;;;;;;4995840;28;20213;-67
2022/04/24 13:10:07;;;;;;;6.93;3.45;;;;;;;;;;4994900;28;20267;-66
2022/04/24 13:12:32;;;;;;;5.75;3.28;;;;;;;;;;4995864;28;20240;-67
2022/04/24 13:14:57;;;;;;;6.07;3.50;;;;;;;;;;4995894;28;21043;-66
2022/04/24 13:20:07;;;;;;;4.70;3.40;;;;;;;;;;4995120;28;20216;-66
2022/04/24 13:22:32;;;;;;;4.72;3.40;;;;;;;;;;4996136;28;20205;-65
2022/04/24 13:24:57;;;;;;;7.20;3.35;;;;;;;;;;4995091;28;20208;-66
2022/04/24 13:27:23;;;;;;;7.63;3.75;;;;;;;;;;4995309;28;20228;-66
2022/04/24 13:29:48;;;;;;;6.28;3.10;;;;;;;;;;4995919;28;20217;-66
2022/04/24 13:32:13;;;;;;;4.90;3.10;;;;;;;;;;4994536;28;20215;-66
2022/04/24 13:34:39;;;;;;;7.45;3.35;;;;;;;;;;4995296;28;20692;-67
2022/04/24 13:39:50;;;;;;;4.32;3.00;;;;;;;;;;4994940;28;20208;-66
2022/04/24 13:42:15;;;;;;;4.65;3.20;;;;;;;;;;4994416;28;20685;-66
2022/04/24 13:44:41;;;;;;;10.23;3.33;;;;;;;;;;4995692;28;20259;-66
2022/04/24 13:47:06;;;;;;;4.82;2.90;;;;;;;;;;4992114;28;20673;-66
2022/04/24 13:49:33;;;;;;;4.03;2.60;;;;;;;;;;4993728;28;20224;-66
2022/04/24 13:51:58;;;;;;;4.20;3.00;;;;;;;;;;4993680;28;20213;-65
2022/04/24 13:54:24;;;;;;;4.40;3.00;;;;;;;;;;4994070;28;20558;-65
2022/04/24 13:56:49;;;;;;;5.97;2.97;;;;;;;;;;4995102;28;20229;-66
2022/04/24 13:59:16;;;;;;;4.82;2.90;;;;;;;;;;4994751;28;20219;-66
2022/04/24 14:01:42;;;;;;;3.40;2.70;;;;;;;;;;4994140;28;20288;-65
2022/04/24 14:04:07;;;;;;;4.60;3.08;;;;;;;;;;4994227;28;20614;-65
2022/04/24 14:06:32;;;;;;;6.25;2.95;;;;;;;;;;4994399;28;20255;-66
2022/04/24 14:08:58;;;;;;;8.15;3.03;;;;;;;;;;4994853;28;20213;-66
2022/04/24 14:11:23;;;;;;;3.83;2.47;;;;;;;;;;4993221;28;20300;-66
2022/04/24 14:13:50;;;;;;;4.07;2.65;;;;;;;;;;4994033;28;20224;-65
2022/04/24 14:16:15;;;;;;;4.82;2.90;;;;;;;;;;4994522;28;20220;-66
2022/04/24 14:18:41;;;;;;;6.28;3.28;;;;;;;;;;4993831;28;20205;-66
2022/04/24 14:21:06;;;;;;;5.68;2.78;;;;;;;;;;4993583;28;20225;-65
2022/04/24 14:23:32;;;;;;;8.07;3.20;;;;;;;;;;4994832;28;20212;-65
2022/04/24 14:25:57;;;;;;;6.57;2.88;;;;;;;;;;4994826;28;20263;-65
2022/04/24 14:28:24;;;;;;;6.28;3.00;;;;;;;;;;4993568;28;20212;-65
2022/04/24 14:30:50;;;;;;;4.15;3.10;;;;;;;;;;4994377;28;20220;-66
2022/04/24 14:33:15;;;;;;;29.40;3.67;;;;;;;;;;4994033;28;20216;-67
2022/04/24 14:35:40;;;;;;;4.10;2.83;;;;;;;;;;4993515;28;20560;-66
2022/04/24 14:38:06;;;;;;;5.13;3.05;;;;;;;;;;4993994;28;20643;-68
2022/04/24 14:40:31;;;;;;;6.28;3.17;;;;;;;;;;4994321;28;20215;-66
2022/04/24 14:42:57;;;;;;;4.85;2.70;;;;;;;;;;4993573;28;20240;-66